createdAt,value
2022-12-11T00:00:12.029Z,35.47
2022-12-11T00:02:38.894Z,34.58
2022-12-11T00:05:06.021Z,36.43
2022-12-11T00:07:32.920Z,32.53
2022-12-11T00:09:59.849Z,34.00
2022-12-11T00:12:27.644Z,34.47
2022-12-11T00:14:54.481Z,32.00
2022-12-11T00:17:21.269Z,33.57
2022-12-11T00:19:48.179Z,31.58
2022-12-11T00:22:15.503Z,28.90
2022-12-11T00:24:42.305Z,27.25
2022-12-11T00:27:09.115Z,32.38
2022-12-11T00:29:36.483Z,30.27
2022-12-11T00:32:03.380Z,30.52
2022-12-11T00:34:30.373Z,30.10
2022-12-11T00:36:58.211Z,32.33
2022-12-11T00:39:25.133Z,30.25
2022-12-11T00:41:51.974Z,29.33
2022-12-11T00:44:18.787Z,31.73
2022-12-11T00:46:45.608Z,29.25
2022-12-11T00:49:12.425Z,32.38
2022-12-11T00:51:39.995Z,27.40
2022-12-11T00:54:06.809Z,26.37
2022-12-11T00:56:33.878Z,27.33
2022-12-11T00:59:00.653Z,27.98
2022-12-11T01:01:27.562Z,27.92
2022-12-11T01:03:54.526Z,26.10
2022-12-11T01:06:24.926Z,26.80
2022-12-11T01:08:52.255Z,27.95
2022-12-11T01:11:19.153Z,26.13
2022-12-11T01:13:46.065Z,27.10
2022-12-11T01:16:17.110Z,27.13
2022-12-11T01:18:44.336Z,24.03
2022-12-11T01:21:13.554Z,26.83
2022-12-11T01:23:40.685Z,25.27
2022-12-11T01:26:10.295Z,26.17
2022-12-11T01:28:37.969Z,28.63
2022-12-11T01:31:11.663Z,28.67
2022-12-11T01:33:39.356Z,30.33
2022-12-11T01:36:32.416Z,26.00
2022-12-11T01:38:59.177Z,32.28
2022-12-11T01:41:26.065Z,29.65
2022-12-11T01:43:56.876Z,29.00
2022-12-11T01:46:24.361Z,29.77
2022-12-11T01:48:52.087Z,25.45
2022-12-11T01:51:18.987Z,28.88
2022-12-11T01:53:54.830Z,28.38
2022-12-11T01:56:21.853Z,27.83
2022-12-11T01:58:56.307Z,25.00
2022-12-11T02:01:33.058Z,26.73
2022-12-11T02:04:01.291Z,24.67
2022-12-11T02:06:35.839Z,23.35
2022-12-11T02:09:05.555Z,29.77
2022-12-11T02:11:47.932Z,23.38
2022-12-11T02:14:27.933Z,24.40
2022-12-11T02:17:06.762Z,26.30
2022-12-11T02:20:10.871Z,21.60
2022-12-11T02:22:54.120Z,20.10
2022-12-11T02:25:51.960Z,23.00
2022-12-11T02:28:30.330Z,25.42
2022-12-11T02:31:38.882Z,23.45
2022-12-11T02:34:28.807Z,24.05
2022-12-11T02:37:00.801Z,23.70
2022-12-11T02:39:29.530Z,25.80
2022-12-11T02:41:56.993Z,22.58
2022-12-11T02:44:28.386Z,23.85
2022-12-11T02:46:56.584Z,22.63
2022-12-11T02:49:26.196Z,21.20
2022-12-11T02:51:54.925Z,19.33
2022-12-11T02:54:27.467Z,22.48
2022-12-11T02:57:04.042Z,22.17
2022-12-11T02:59:38.170Z,19.90
2022-12-11T03:02:05.802Z,19.03
2022-12-11T03:04:35.723Z,20.02
2022-12-11T03:07:14.176Z,20.15
2022-12-11T03:09:44.232Z,18.88
2022-12-11T03:12:19.156Z,18.58
2022-12-11T03:14:46.735Z,17.60
2022-12-11T03:17:24.144Z,14.70
2022-12-11T03:20:05.826Z,15.80
2022-12-11T03:22:41.435Z,14.65
2022-12-11T03:25:18.006Z,15.77
2022-12-11T03:27:50.676Z,14.80
2022-12-11T03:30:20.901Z,13.55
2022-12-11T03:32:56.235Z,14.25
2022-12-11T03:35:34.938Z,13.43
2022-12-11T03:38:06.997Z,13.93
2022-12-11T03:40:37.018Z,14.97
2022-12-11T03:43:06.729Z,13.73
2022-12-11T03:45:34.928Z,12.63
2022-12-11T03:48:03.354Z,12.10
2022-12-11T03:50:34.168Z,13.27
2022-12-11T03:53:03.411Z,15.60
2022-12-11T03:55:33.034Z,13.60
2022-12-11T03:57:59.802Z,15.32
2022-12-11T04:00:26.772Z,16.58
2022-12-11T04:02:53.675Z,13.32
2022-12-11T04:05:20.520Z,16.73
2022-12-11T04:07:47.316Z,16.45
2022-12-11T04:10:14.220Z,17.27
2022-12-11T04:12:40.982Z,15.35
2022-12-11T04:15:08.157Z,15.85
2022-12-11T04:17:37.042Z,16.40
2022-12-11T04:20:06.363Z,17.50
2022-12-11T04:22:33.193Z,16.25
2022-12-11T04:25:01.361Z,18.80
2022-12-11T04:27:28.331Z,17.33
2022-12-11T04:29:55.164Z,18.83
2022-12-11T04:32:21.892Z,19.05
2022-12-11T04:34:48.919Z,17.42
2022-12-11T04:37:15.661Z,18.05
2022-12-11T04:39:42.485Z,17.88
2022-12-11T04:42:09.275Z,17.97
2022-12-11T04:44:36.003Z,15.43
2022-12-11T04:47:02.946Z,18.05
2022-12-11T04:49:29.722Z,16.50
2022-12-11T04:51:56.569Z,18.35
2022-12-11T04:54:23.395Z,16.07
2022-12-11T04:56:50.235Z,18.98
2022-12-11T04:59:17.020Z,13.43
2022-12-11T05:01:43.867Z,16.55
2022-12-11T05:04:10.625Z,13.82
2022-12-11T05:06:37.394Z,13.23
2022-12-11T05:09:04.282Z,15.40
2022-12-11T05:11:31.247Z,15.77
2022-12-11T05:13:58.036Z,16.15
2022-12-11T05:16:25.044Z,14.93
2022-12-11T05:18:51.829Z,15.87
2022-12-11T05:21:18.619Z,15.63
2022-12-11T05:23:45.430Z,18.45
2022-12-11T05:26:17.327Z,15.77
2022-12-11T05:28:44.801Z,17.50
2022-12-11T05:31:17.743Z,16.50
2022-12-11T05:33:45.866Z,17.55
2022-12-11T05:36:16.543Z,17.40
2022-12-11T05:38:43.495Z,15.85
2022-12-11T05:41:13.858Z,17.25
2022-12-11T05:43:41.050Z,17.63
2022-12-11T05:46:10.441Z,18.27
2022-12-11T05:48:38.366Z,16.42
2022-12-11T05:51:06.781Z,16.17
2022-12-11T05:53:34.030Z,17.67
2022-12-11T05:56:06.120Z,17.70
2022-12-11T05:58:34.529Z,17.98
2022-12-11T06:01:02.051Z,18.17
2022-12-11T06:03:28.887Z,19.70
2022-12-11T06:05:55.630Z,19.73
2022-12-11T06:08:22.705Z,17.00
2022-12-11T06:10:50.541Z,16.05
2022-12-11T06:13:17.476Z,17.70
2022-12-11T06:15:44.320Z,18.58
2022-12-11T06:18:11.297Z,15.70
2022-12-11T06:20:38.563Z,18.33
2022-12-11T06:23:05.291Z,17.13
2022-12-11T06:25:32.345Z,18.65
2022-12-11T06:27:59.187Z,20.38
2022-12-11T06:30:39.225Z,16.85
2022-12-11T06:33:07.008Z,17.03
2022-12-11T06:35:40.064Z,18.52
2022-12-11T06:38:09.728Z,15.90
2022-12-11T06:40:36.465Z,16.33
2022-12-11T06:43:03.236Z,17.25
2022-12-11T06:45:30.232Z,17.63
2022-12-11T06:47:57.040Z,16.67
2022-12-11T06:50:24.081Z,14.63
2022-12-11T06:52:50.881Z,14.00
2022-12-11T06:55:17.649Z,13.98
2022-12-11T06:57:44.608Z,13.90
2022-12-11T07:00:12.042Z,15.85
2022-12-11T07:02:38.832Z,14.85
2022-12-11T07:05:06.018Z,14.60
2022-12-11T07:07:33.157Z,13.75
2022-12-11T07:10:07.309Z,11.70
2022-12-11T07:12:35.512Z,12.30
2022-12-11T07:15:02.462Z,12.07
2022-12-11T07:17:29.819Z,10.82
2022-12-11T07:19:56.670Z,12.55
2022-12-11T07:22:23.693Z,12.80
2022-12-11T07:24:50.531Z,12.95
2022-12-11T07:27:17.360Z,11.82
2022-12-11T07:29:44.183Z,12.68
2022-12-11T07:32:11.068Z,12.00
2022-12-11T07:34:38.262Z,12.70
2022-12-11T07:37:05.205Z,10.35
2022-12-11T07:39:31.977Z,13.27
2022-12-11T07:41:58.814Z,14.70
2022-12-11T07:44:25.605Z,10.35
2022-12-11T07:46:52.507Z,14.70
2022-12-11T07:49:19.297Z,12.40
2022-12-11T07:51:46.094Z,10.60
2022-12-11T07:54:14.516Z,10.73
2022-12-11T07:56:43.890Z,11.45
2022-12-11T07:59:11.528Z,12.47
2022-12-11T08:01:39.467Z,10.25
2022-12-11T08:04:08.037Z,11.38
2022-12-11T08:06:37.090Z,11.88
2022-12-11T08:09:07.251Z,10.15
2022-12-11T08:11:34.334Z,10.97
2022-12-11T08:14:01.959Z,8.95
2022-12-11T08:16:29.574Z,11.93
2022-12-11T08:18:56.448Z,10.80
2022-12-11T08:21:26.293Z,10.40
2022-12-11T08:23:54.188Z,11.40
2022-12-11T08:26:25.701Z,12.90
2022-12-11T08:28:56.413Z,9.07
2022-12-11T08:31:25.287Z,9.30
2022-12-11T08:33:52.608Z,10.77
2022-12-11T08:36:21.763Z,8.77
2022-12-11T08:38:49.992Z,10.60
2022-12-11T08:41:20.104Z,10.25
2022-12-11T08:43:47.362Z,10.50
2022-12-11T08:46:15.170Z,10.48
2022-12-11T08:48:43.186Z,9.73
2022-12-11T08:51:15.136Z,11.73
2022-12-11T08:53:41.985Z,11.00
2022-12-11T08:56:14.266Z,11.13
2022-12-11T08:58:41.166Z,10.20
2022-12-11T09:01:10.397Z,10.70
2022-12-11T09:03:38.639Z,9.40
2022-12-11T09:06:10.587Z,9.70
2022-12-11T09:08:37.877Z,10.63
2022-12-11T09:11:07.548Z,8.90
2022-12-11T09:13:34.614Z,10.53
2022-12-11T09:16:08.011Z,10.52
2022-12-11T09:18:35.473Z,11.40
2022-12-11T09:21:04.878Z,10.00
2022-12-11T09:23:32.420Z,10.57
2022-12-11T09:25:59.740Z,10.27
2022-12-11T09:28:26.581Z,11.50
2022-12-11T09:30:53.427Z,11.27
2022-12-11T09:33:20.339Z,9.68
2022-12-11T09:35:56.441Z,11.63
2022-12-11T09:38:23.253Z,11.37
2022-12-11T09:40:49.972Z,10.38
2022-12-11T09:43:31.875Z,10.80
2022-12-11T09:46:03.159Z,11.77
2022-12-11T09:48:33.866Z,10.65
2022-12-11T09:51:10.515Z,11.80
2022-12-11T09:53:37.432Z,13.70
2022-12-11T09:56:09.989Z,9.90
2022-12-11T09:58:48.671Z,11.27
2022-12-11T10:01:26.295Z,11.05
2022-12-11T10:04:07.413Z,10.97
2022-12-11T10:07:02.975Z,11.45
2022-12-11T10:10:02.380Z,9.93
2022-12-11T10:13:06.354Z,8.48
2022-12-11T10:15:57.497Z,9.13
2022-12-11T10:18:26.293Z,11.43
2022-12-11T10:20:54.275Z,9.38
2022-12-11T10:23:52.358Z,9.23
2022-12-11T10:26:22.502Z,8.52
2022-12-11T10:28:49.931Z,9.45
2022-12-11T10:31:20.850Z,9.10
2022-12-11T10:34:00.996Z,9.45
2022-12-11T10:36:35.349Z,9.32
2022-12-11T10:39:03.607Z,8.15
2022-12-11T10:41:46.192Z,8.13
2022-12-11T10:44:27.418Z,8.30
2022-12-11T10:47:03.139Z,9.23
2022-12-11T10:49:32.084Z,9.48
2022-12-11T10:51:59.909Z,9.00
2022-12-11T10:54:40.440Z,7.03
2022-12-11T10:57:10.320Z,7.70
2022-12-11T10:59:39.270Z,7.50
2022-12-11T11:02:16.667Z,8.93
2022-12-11T11:04:44.764Z,8.98
2022-12-11T11:07:19.820Z,8.25
2022-12-11T11:09:46.943Z,8.87
2022-12-11T11:12:23.345Z,8.18
2022-12-11T11:15:15.144Z,10.02
2022-12-11T11:17:55.795Z,7.93
2022-12-11T11:20:28.724Z,8.30
2022-12-11T11:23:04.643Z,7.83
2022-12-11T11:25:33.412Z,9.10
2022-12-11T11:28:06.659Z,8.55
2022-12-11T11:30:41.975Z,7.85
2022-12-11T11:33:19.959Z,8.18
2022-12-11T11:36:26.535Z,7.80
2022-12-11T11:39:28.615Z,9.05
2022-12-11T11:42:24.294Z,8.23
2022-12-11T11:44:57.468Z,8.45
2022-12-11T11:47:28.617Z,8.75
2022-12-11T11:50:14.944Z,8.03
2022-12-11T11:53:01.420Z,9.48
2022-12-11T11:55:44.294Z,8.60
2022-12-11T11:58:22.027Z,8.43
2022-12-11T12:00:50.515Z,8.80
2022-12-11T12:03:21.495Z,9.20
2022-12-11T12:06:02.847Z,10.48
2022-12-11T12:08:45.168Z,8.38
2022-12-11T12:11:20.196Z,7.95
2022-12-11T12:14:50.673Z,8.50
2022-12-11T12:17:21.702Z,8.63
2022-12-11T12:20:09.591Z,7.47
2022-12-11T12:22:36.521Z,9.23
2022-12-11T12:25:30.383Z,7.20
2022-12-11T12:28:18.322Z,7.95
2022-12-11T12:31:10.210Z,7.13
2022-12-11T12:33:46.921Z,6.60
2022-12-11T12:36:35.010Z,7.68
2022-12-11T12:39:13.979Z,6.75
2022-12-11T12:41:52.986Z,6.68
2022-12-11T12:44:24.660Z,5.70
2022-12-11T12:47:04.109Z,7.95
2022-12-11T12:49:37.241Z,7.38
2022-12-11T12:52:06.680Z,6.75
2022-12-11T12:54:35.984Z,7.13
2022-12-11T12:57:05.191Z,5.67
2022-12-11T12:59:32.219Z,7.63
2022-12-11T13:02:02.714Z,5.68
2022-12-11T13:04:59.182Z,6.90
2022-12-11T13:07:30.395Z,6.88
2022-12-11T13:10:01.285Z,9.23
2022-12-11T13:12:47.869Z,7.38
2022-12-11T13:15:32.468Z,8.98
2022-12-11T13:18:01.137Z,10.27
2022-12-11T13:20:33.696Z,11.73
2022-12-11T13:23:00.718Z,12.77
2022-12-11T13:25:31.236Z,13.02
2022-12-11T13:28:21.675Z,13.65
2022-12-11T13:31:21.241Z,15.98
2022-12-11T13:33:58.509Z,17.10
2022-12-11T13:36:33.957Z,16.67
2022-12-11T13:39:16.449Z,15.27
2022-12-11T13:41:48.189Z,16.33
2022-12-11T13:44:28.520Z,16.80
2022-12-11T13:46:59.045Z,14.13
2022-12-11T13:49:32.751Z,15.17
2022-12-11T13:52:01.501Z,14.75
2022-12-11T13:54:30.238Z,15.15
2022-12-11T13:57:07.528Z,15.32
2022-12-11T13:59:37.360Z,15.40
2022-12-11T14:02:15.511Z,15.23
2022-12-11T14:04:43.240Z,15.60
2022-12-11T14:07:11.828Z,16.65
2022-12-11T14:09:44.366Z,16.85
2022-12-11T14:12:18.400Z,15.05
2022-12-11T14:14:57.096Z,17.07
2022-12-11T14:17:27.121Z,15.82
2022-12-11T14:19:56.141Z,17.55
2022-12-11T14:22:26.080Z,14.63
2022-12-11T14:24:59.085Z,16.70
2022-12-11T14:27:27.664Z,14.97
2022-12-11T14:29:55.114Z,14.68
2022-12-11T14:32:33.000Z,15.88
2022-12-11T14:35:02.658Z,14.52
2022-12-11T14:37:29.760Z,14.48
2022-12-11T14:40:04.806Z,14.83
2022-12-11T14:42:37.054Z,18.05
2022-12-11T14:45:21.414Z,14.20
2022-12-11T14:47:49.056Z,14.48
2022-12-11T14:50:21.417Z,14.50
2022-12-11T14:52:53.514Z,16.00
2022-12-11T14:55:25.245Z,13.40
2022-12-11T14:57:57.213Z,14.30
2022-12-11T15:00:30.693Z,14.82
2022-12-11T15:03:22.314Z,12.70
2022-12-11T15:05:58.998Z,13.77
2022-12-11T15:08:32.314Z,12.65
2022-12-11T15:11:17.077Z,13.48
2022-12-11T15:13:54.981Z,13.52
2022-12-11T15:16:24.381Z,12.48
2022-12-11T15:18:53.637Z,14.97
2022-12-11T15:21:29.740Z,13.18
2022-12-11T15:23:59.193Z,12.93
2022-12-11T15:26:38.322Z,13.05
2022-12-11T15:29:23.896Z,12.32
2022-12-11T15:32:02.464Z,13.50
2022-12-11T15:34:35.333Z,14.07
2022-12-11T15:37:02.448Z,11.90
2022-12-11T15:39:29.273Z,12.75
2022-12-11T15:41:56.535Z,11.70
2022-12-11T15:44:23.494Z,13.17
2022-12-11T15:46:51.955Z,11.18
2022-12-11T15:49:18.891Z,12.75
2022-12-11T15:51:46.493Z,13.85
2022-12-11T15:54:13.336Z,12.45
2022-12-11T15:56:40.469Z,12.07
2022-12-11T15:59:07.856Z,11.77
2022-12-11T16:01:35.169Z,11.65
2022-12-11T16:04:05.074Z,13.35
2022-12-11T16:06:32.739Z,11.98
2022-12-11T16:08:59.574Z,12.10
2022-12-11T16:11:26.880Z,12.60
2022-12-11T16:13:54.138Z,12.18
2022-12-11T16:16:21.186Z,12.70
2022-12-11T16:18:50.989Z,11.00
2022-12-11T16:21:21.376Z,11.37
2022-12-11T16:23:48.857Z,10.23
2022-12-11T16:26:15.943Z,11.82
2022-12-11T16:28:44.927Z,12.10
2022-12-11T16:31:13.553Z,9.82
2022-12-11T16:33:42.341Z,10.57
2022-12-11T16:36:17.858Z,9.90
2022-12-11T16:38:52.937Z,10.32
2022-12-11T16:41:21.471Z,11.13
2022-12-11T16:43:49.232Z,10.45
2022-12-11T16:46:20.759Z,10.33
2022-12-11T16:48:48.499Z,11.50
2022-12-11T16:51:16.867Z,10.45
2022-12-11T16:53:44.486Z,8.68
2022-12-11T16:56:12.037Z,11.23
2022-12-11T16:58:39.354Z,11.60
2022-12-11T17:01:11.577Z,11.60
2022-12-11T17:03:39.766Z,10.63
2022-12-11T17:06:07.926Z,11.48
2022-12-11T17:08:35.084Z,13.20
2022-12-11T17:11:05.726Z,12.13
2022-12-11T17:13:35.991Z,13.52
2022-12-11T17:16:12.576Z,13.85
2022-12-11T17:18:40.578Z,14.05
2022-12-11T17:21:11.687Z,13.73
2022-12-11T17:23:39.687Z,15.80
2022-12-11T17:26:09.706Z,15.52
2022-12-11T17:28:38.727Z,20.63
2022-12-11T17:31:08.562Z,17.98
2022-12-11T17:33:36.736Z,15.93
2022-12-11T17:36:06.016Z,15.60
2022-12-11T17:38:33.715Z,14.52
2022-12-11T17:41:02.471Z,16.30
2022-12-11T17:43:29.779Z,16.35
2022-12-11T17:45:57.778Z,15.18
2022-12-11T17:48:24.715Z,17.23
2022-12-11T17:50:52.962Z,17.15
2022-12-11T17:53:21.622Z,17.20
2022-12-11T17:55:49.983Z,16.65
2022-12-11T17:58:19.314Z,18.25
2022-12-11T18:00:50.926Z,18.67
2022-12-11T18:03:18.325Z,18.50
2022-12-11T18:05:48.744Z,18.20
2022-12-11T18:08:24.565Z,17.92
2022-12-11T18:10:53.598Z,19.55
2022-12-11T18:13:22.164Z,19.37
2022-12-11T18:16:05.447Z,18.08
2022-12-11T18:18:33.039Z,17.73
2022-12-11T18:21:01.063Z,20.65
2022-12-11T18:26:12.216Z,17.47
2022-12-11T18:28:39.405Z,21.08
2022-12-11T18:31:08.579Z,17.48
2022-12-11T18:33:40.648Z,18.73
2022-12-11T18:36:09.505Z,19.85
2022-12-11T18:38:38.867Z,20.60
2022-12-11T18:41:08.275Z,20.40
2022-12-11T18:43:35.666Z,20.35
2022-12-11T18:46:08.407Z,21.13
2022-12-11T18:48:37.360Z,19.33
2022-12-11T18:51:14.421Z,18.50
2022-12-11T18:53:42.343Z,19.90
2022-12-11T18:56:16.625Z,21.27
2022-12-11T18:58:46.772Z,20.23
2022-12-11T19:01:27.317Z,18.40
2022-12-11T19:04:02.047Z,20.10
2022-12-11T19:06:31.609Z,19.02
2022-12-11T19:09:00.124Z,17.13
2022-12-11T19:11:30.505Z,20.73
2022-12-11T19:13:59.470Z,18.70
2022-12-11T19:16:31.641Z,19.87
2022-12-11T19:19:03.663Z,20.65
2022-12-11T19:21:31.458Z,19.75
2022-12-11T19:23:59.189Z,20.08
2022-12-11T19:26:27.232Z,18.88
2022-12-11T19:28:55.018Z,19.00
2022-12-11T19:31:23.916Z,17.33
2022-12-11T19:33:51.882Z,18.80
2022-12-11T19:36:22.516Z,18.50
2022-12-11T19:38:51.626Z,16.17
2022-12-11T19:41:24.946Z,17.37
2022-12-11T19:43:55.514Z,17.70
2022-12-11T19:46:26.139Z,18.80
2022-12-11T19:48:55.305Z,20.25
2022-12-11T19:51:26.779Z,16.85
2022-12-11T19:53:55.112Z,17.03
2022-12-11T19:56:22.927Z,18.08
2022-12-11T19:58:54.222Z,16.00
2022-12-11T20:01:26.663Z,16.25
2022-12-11T20:03:56.120Z,16.65
2022-12-11T20:06:27.498Z,16.83
2022-12-11T20:08:56.931Z,16.48
2022-12-11T20:11:26.033Z,16.30
2022-12-11T20:13:53.813Z,17.35
2022-12-11T20:16:46.175Z,14.73
2022-12-11T20:19:14.942Z,16.57
2022-12-11T20:21:42.507Z,17.92
2022-12-11T20:24:10.854Z,13.73
2022-12-11T20:26:38.975Z,16.05
2022-12-11T20:29:08.758Z,14.43
2022-12-11T20:31:37.809Z,15.27
2022-12-11T20:34:06.544Z,14.73
2022-12-11T20:36:34.207Z,18.27
2022-12-11T20:39:02.028Z,15.98
2022-12-11T20:41:29.784Z,16.17
2022-12-11T20:44:00.013Z,15.23
2022-12-11T20:46:28.171Z,14.75
2022-12-11T20:48:57.731Z,16.25
2022-12-11T20:51:26.456Z,16.95
2022-12-11T20:53:56.243Z,16.10
2022-12-11T20:56:25.407Z,15.90
2022-12-11T20:58:56.709Z,16.67
2022-12-11T21:01:29.701Z,14.93
2022-12-11T21:03:58.681Z,17.60
2022-12-11T21:06:27.488Z,17.25
2022-12-11T21:08:55.181Z,15.57
2022-12-11T21:11:22.710Z,16.52
2022-12-11T21:13:51.475Z,15.60
2022-12-11T21:16:19.916Z,17.25
2022-12-11T21:18:47.769Z,15.93
2022-12-11T21:21:15.952Z,16.17
2022-12-11T21:23:43.379Z,17.75
2022-12-11T21:26:10.515Z,15.63
2022-12-11T21:28:38.937Z,16.58
2022-12-11T21:31:09.166Z,15.13
2022-12-11T21:33:36.375Z,17.13
2022-12-11T21:36:06.744Z,17.13
2022-12-11T21:38:33.945Z,16.98
2022-12-11T21:41:12.001Z,15.20
2022-12-11T21:43:59.593Z,17.92
2022-12-11T21:46:28.388Z,14.90
2022-12-11T21:48:55.413Z,17.42
2022-12-11T21:51:40.259Z,15.52
2022-12-11T21:54:12.893Z,15.77
2022-12-11T21:56:40.555Z,16.85
2022-12-11T21:59:07.913Z,17.53
2022-12-11T22:01:38.280Z,14.63
2022-12-11T22:04:07.486Z,16.05
2022-12-11T22:06:34.397Z,16.38
2022-12-11T22:09:01.326Z,14.27
2022-12-11T22:11:32.466Z,14.97
2022-12-11T22:13:59.843Z,14.93
2022-12-11T22:16:26.818Z,14.75
2022-12-11T22:18:53.730Z,14.98
2022-12-11T22:21:20.934Z,15.90
2022-12-11T22:23:47.772Z,16.77
2022-12-11T22:26:21.847Z,14.48
2022-12-11T22:28:49.248Z,15.38
2022-12-11T22:31:19.042Z,14.93
2022-12-11T22:33:46.358Z,16.35
2022-12-11T22:36:13.188Z,15.63
2022-12-11T22:38:40.149Z,14.90
2022-12-11T22:41:20.467Z,15.77
2022-12-11T22:43:49.072Z,15.73
2022-12-11T22:46:17.244Z,16.55
2022-12-11T22:48:44.110Z,15.47
2022-12-11T22:51:11.978Z,15.98
2022-12-11T22:53:39.102Z,14.80
2022-12-11T22:56:07.751Z,16.23
2022-12-11T22:58:34.824Z,15.15
2022-12-11T23:01:02.830Z,14.70
2022-12-11T23:03:29.696Z,15.13
2022-12-11T23:05:58.794Z,13.45
2022-12-11T23:08:29.069Z,14.93
2022-12-11T23:10:56.146Z,14.32
2022-12-11T23:13:22.902Z,14.73
2022-12-11T23:15:49.761Z,15.52
2022-12-11T23:18:16.487Z,14.23
2022-12-11T23:20:45.425Z,15.55
2022-12-11T23:23:12.371Z,15.05
2022-12-11T23:25:39.225Z,14.33
2022-12-11T23:28:06.235Z,15.50
2022-12-11T23:30:33.058Z,13.60
2022-12-11T23:32:59.862Z,13.18
2022-12-11T23:35:26.719Z,12.85
2022-12-11T23:37:53.496Z,14.40
2022-12-11T23:40:20.290Z,12.15
2022-12-11T23:42:47.155Z,14.70
2022-12-11T23:45:14.313Z,13.10
2022-12-11T23:47:41.395Z,12.98
2022-12-11T23:50:08.677Z,15.73
2022-12-11T23:52:35.694Z,13.98
2022-12-11T23:55:02.526Z,11.75
2022-12-11T23:57:29.477Z,15.13
2022-12-11T23:59:56.217Z,13.98
